Latest Weather Observations for Port Kembla Harbour

IDN60801

Issued at 9:35 am EST Wednesday 3 September 2014 (issued every 30 minutes, with the page automatically refreshed every 10 minutes)

About weather observations | Map of weather stations | Latest weather observations for NSW | Other Formats
Station Details ID: 068253 Name: PORT KEMBLA NTC AWS Lat: -34.47 Lon: 150.91 Height: 0.0 m
Data from the previous 72 hours. | See also: Recent months for locations in New South Wales
Date/Time
EST
Temp
°C
App
Temp
°C
Dew
Point
Rel
Hum
%
Delta-T
°C
Wind Press
QNH
hPa
Press
MSL
hPa
Rain
since 9 am
mm
Dir
 
Spd
km/h
Gust
km/h
Spd
kts
Gust
kts
03/09:30am 13.1 - - - - SW 35 52 19 28 1013.5 1013.5 -
03/09:00am 12.7 - - - - SW 37 52 20 28 1013.7 1013.7 -
03/08:43am 12.3 - - - - SW 30 50 16 27 1013.7 1013.7 -
03/08:30am 12.1 - - - - SW 35 50 19 27 1013.6 1013.6 -
03/08:11am 12.0 - - - - SW 28 46 15 25 1013.5 1013.5 -
03/08:00am 11.9 - - - - SW 32 48 17 26 1013.4 1013.4 -
03/07:42am 11.7 - - - - SW 32 50 17 27 1013.5 1013.5 -
03/07:30am 11.8 - - - - SW 37 52 20 28 1013.3 1013.3 -
03/07:00am 11.7 - - - - SW 32 50 17 27 1012.8 1012.8 -
03/06:55am 11.7 - - - - SW 32 50 17 27 1012.8 1012.8 -
03/06:30am 11.8 - - - - SW 35 52 19 28 1012.4 1012.4 -
03/06:01am 11.9 - - - - SW 32 52 17 28 1012.2 - -
03/06:00am 11.9 - - - - SW 33 52 18 28 1012.1 1012.1 -
03/05:30am 11.8 - - - - SW 32 52 17 28 1011.8 - -
03/05:15am 11.4 - - - - SW 32 52 17 28 1011.8 - -
03/05:00am 11.6 - - - - SW 32 48 17 26 1011.8 1011.8 -
03/04:33am 11.8 - - - - SW 28 48 15 26 1011.1 - -
03/04:30am 11.7 - - - - SW 28 43 15 23 1010.9 - -
03/04:10am 11.7 - - - - SW 28 48 15 26 1010.7 - -
03/04:00am 11.6 - - - - SW 30 48 16 26 1010.6 1010.6 -
03/03:32am 11.6 - - - - SW 32 50 17 27 1010.6 - -
03/03:30am 11.7 - - - - SW 33 50 18 27 1010.5 - -
03/03:00am 11.8 - - - - SW 32 48 17 26 1010.4 1010.4 -
03/02:30am 11.9 - - - - SW 28 46 15 25 1010.2 - -
03/02:25am 11.8 - - - - SW 32 52 17 28 1010.3 - -
03/02:00am 11.9 - - - - SW 33 48 18 26 1010.0 1010.0 -
03/01:42am 11.7 - - - - SW 33 52 18 28 1010.5 - -
03/01:30am 11.9 - - - - SW 35 52 19 28 1010.9 - -
03/01:04am 11.1 - - - - SW 30 50 16 27 1011.1 - -
03/01:00am 10.8 - - - - SW 32 46 17 25 1011.0 1011.0 -
03/12:51am 10.7 - - - - SW 32 50 17 27 1011.0 - -
03/12:30am 11.0 - - - - SW 41 52 22 28 1010.3 - -
03/12:00am 11.2 - - - - SW 30 50 16 27 1010.6 1010.6 -
 
Date/Time
EST
Temp
°C
App
Temp
°C
Dew
Point
Rel
Hum
%
Delta-T
°C
Wind Press
QNH
hPa
Press
MSL
hPa
Rain
since 9 am
mm
Dir
 
Spd
km/h
Gust
km/h
Spd
kts
Gust
kts
02/11:55pm 10.9 - - - - SW 30 48 16 26 1010.6 - -
02/11:30pm 10.4 - - - - WSW 35 50 19 27 1010.5 - -
02/11:07pm 10.5 - - - - WSW 30 48 16 26 1010.7 - -
02/11:00pm 10.6 - - - - WSW 37 52 20 28 1010.8 1010.8 -
02/10:36pm 10.1 - - - - WSW 32 50 17 27 1011.2 - -
02/10:30pm 10.0 - - - - WSW 33 48 18 26 1011.5 - -
02/10:07pm 10.3 - - - - WSW 32 50 17 27 1011.3 - -
02/10:00pm 10.4 - - - - WSW 35 50 19 27 1011.5 1011.5 -
02/09:30pm 10.4 - - - - WSW 32 50 17 27 1011.2 - -
02/09:02pm 10.4 - - - - WSW 30 48 16 26 1011.6 - -
02/09:00pm 10.3 - - - - WSW 32 48 17 26 1011.5 1011.5 -
02/08:32pm 10.4 - - - - SW 32 50 17 27 1011.6 - -
02/08:30pm 10.3 - - - - WSW 33 52 18 28 1011.5 - -
02/08:22pm 10.6 - - - - WSW 32 52 17 28 1011.4 - -
02/08:00pm 10.6 - - - - WSW 33 50 18 27 1011.5 1011.5 -
02/07:54pm 10.9 - - - - WSW 28 50 15 27 1011.5 - -
02/07:30pm 10.9 - - - - WSW 30 43 16 23 1011.1 - -
02/07:00pm 10.9 - - - - SW 20 37 11 20 1010.9 1010.9 -
02/06:30pm 10.9 - - - - SW 17 26 9 14 1010.3 - -
02/06:00pm 12.3 - - - - WSW 22 37 12 20 1009.9 1009.9 -
02/05:30pm 11.9 - - - - WSW 17 24 9 13 1009.2 - -
02/05:00pm 12.3 - - - - W 15 22 8 12 1009.0 1009.0 -
02/04:30pm 11.8 - - - - WSW 20 33 11 18 1008.7 - -
02/04:11pm 13.9 - - - - SW 32 50 17 27 1008.3 - -
02/04:00pm 14.5 - - - - W 11 17 6 9 1007.8 1007.8 -
02/03:30pm 14.4 - - - - WSW 15 20 8 11 1007.4 - -
02/03:00pm 13.6 - - - - W 13 22 7 12 1007.3 1007.3 -
02/02:30pm 13.2 - - - - W 17 22 9 12 1007.6 - -
02/02:00pm 12.8 - - - - WSW 20 26 11 14 1007.9 1007.9 -
02/01:30pm 13.8 - - - - WSW 20 30 11 16 1008.0 - -
02/01:00pm 13.1 - - - - WSW 17 24 9 13 1008.1 1008.1 -
02/12:30pm 13.4 - - - - SSW 15 32 8 17 1008.2 - -
02/12:00pm 13.6 - - - - SSW 15 30 8 16 1008.1 1008.1 -
02/11:30am 13.8 - - - - S 15 33 8 18 1008.4 - -
02/11:00am 15.5 - - - - WSW 19 28 10 15 1008.6 1008.6 -
02/10:30am 15.8 - - - - WSW 15 24 8 13 1008.6 - -
02/10:00am 15.6 - - - - WSW 20 33 11 18 1008.5 1008.5 -
02/09:30am 15.5 - - - - WSW 24 35 13 19 1008.8 - -
02/09:00am 15.1 - - - - WSW 22 39 12 21 1009.4 1009.4 -
02/08:30am 15.1 - - - - WSW 20 28 11 15 1009.2 - -
02/08:00am 15.4 - - - - NW 19 26 10 14 1008.6 1008.6 -
02/07:30am 15.6 - - - - WNW 20 30 11 16 1008.3 - -
02/07:00am 15.5 - - - - W 17 20 9 11 1008.5 1008.5 -
02/06:30am 15.7 - - - - W 17 22 9 12 1008.1 - -
02/06:00am 16.1 - - - - WNW 30 39 16 21 1007.9 1007.9 -
02/05:30am 16.2 - - - - WNW 22 30 12 16 1007.9 - -
02/05:00am 16.0 - - - - W 22 28 12 15 1008.1 1008.1 -
02/04:30am 16.1 - - - - W 26 37 14 20 1008.1 - -
02/04:00am 16.3 - - - - W 32 46 17 25 1008.2 1008.2 -
02/03:30am 16.7 - - - - W 30 39 16 21 1008.4 - -
02/03:00am 17.2 - - - - W 28 37 15 20 1008.4 1008.4 -
02/02:30am 18.0 - - - - W 19 26 10 14 1008.2 - -
02/02:00am 18.7 - - - - WNW 6 11 3 6 1008.1 1008.1 -
02/01:30am 18.2 - - - - NNW 11 15 6 8 1008.0 - -
02/01:00am 18.5 - - - - NNW 9 15 5 8 1008.1 1008.1 -
02/12:30am 18.8 - - - - NNW 9 15 5 8 1008.5 - -
02/12:00am 18.7 - - - - NNW 11 15 6 8 1008.7 1008.7 -
 
Date/Time
EST
Temp
°C
App
Temp
°C
Dew
Point
Rel
Hum
%
Delta-T
°C
Wind Press
QNH
hPa
Press
MSL
hPa
Rain
since 9 am
mm
Dir
 
Spd
km/h
Gust
km/h
Spd
kts
Gust
kts
01/11:30pm 19.2 - - - - NNW 13 20 7 11 1009.3 - -
01/11:00pm 18.8 - - - - NNW 13 19 7 10 1009.5 1009.5 -
01/10:30pm 18.1 - - - - NW 9 11 5 6 1009.7 - -
01/10:00pm 17.8 - - - - N 7 11 4 6 1009.8 1009.8 -
01/09:30pm 16.9 - - - - WNW 2 6 1 3 1010.1 - -
01/09:00pm 16.6 - - - - SW 4 7 2 4 1009.9 1009.9 -
01/08:30pm 17.2 - - - - WSW 6 13 3 7 1010.3 - -
01/08:00pm 17.1 - - - - SW 4 7 2 4 1010.5 1010.5 -
01/07:30pm 17.2 - - - - N 4 7 2 4 1010.4 - -
01/07:00pm 17.4 - - - - N 7 11 4 6 1010.4 1010.4 -
01/06:30pm 17.9 - - - - NNW 9 17 5 9 1010.4 - -
01/06:00pm 17.8 - - - - N 17 22 9 12 1010.0 1010.0 -
01/05:30pm 18.1 - - - - N 19 26 10 14 1009.8 - -
01/05:00pm 18.1 - - - - N 20 24 11 13 1009.8 1009.8 -
01/04:30pm 18.1 - - - - NNE 17 24 9 13 1009.7 - -
01/04:00pm 18.0 - - - - NE 22 32 12 17 1009.5 1009.5 -
01/03:30pm 18.0 - - - - NNE 24 32 13 17 1009.4 - -
01/03:00pm 18.1 - - - - NE 19 24 10 13 1009.5 1009.5 -
01/02:30pm 18.0 - - - - NE 17 26 9 14 1009.8 - -
01/02:00pm 18.6 - - - - NE 17 24 9 13 1010.2 1010.2 -
01/01:30pm 18.2 - - - - ENE 13 20 7 11 1010.7 - -
01/01:00pm 18.3 - - - - NE 17 26 9 14 1011.1 1011.1 -
01/12:30pm 18.0 - - - - NE 19 26 10 14 1011.7 - -
01/12:00pm 17.9 - - - - NE 19 26 10 14 1012.4 1012.4 -
01/11:30am 17.6 - - - - NE 17 22 9 12 1012.8 - -
01/11:00am 17.4 - - - - NNE 17 22 9 12 1013.4 1013.4 -
01/10:30am 17.4 - - - - NE 17 22 9 12 1013.9 - -
01/10:00am 17.6 - - - - NNE 11 17 6 9 1014.4 1014.4 -
01/09:30am 17.5 - - - - N 13 20 7 11 1015.1 - -
01/09:00am 16.6 - - - - N 13 17 7 9 1015.5 1015.5 -
01/08:30am 17.5 - - - - NNW 11 19 6 10 1015.7 - -
01/08:00am 16.3 - - - - WNW 7 15 4 8 1015.9 1015.9 -
01/07:30am 13.7 - - - - S 2 6 1 3 1015.7 - -
01/07:00am 12.8 - - - - WSW 7 11 4 6 1015.5 1015.5 -
01/06:30am 12.7 - - - - W 6 9 3 5 1015.4 - -
01/06:00am 12.4 - - - - W 7 9 4 5 1015.3 1015.3 -
01/05:30am 12.6 - - - - W 11 13 6 7 1015.2 - -
01/05:00am 13.1 - - - - W 7 9 4 5 1015.1 1015.1 -
01/04:30am 13.0 - - - - WSW 4 6 2 3 1014.9 - -
01/04:00am 12.9 - - - - WSW 4 9 2 5 1015.0 1015.0 -
01/03:30am 12.4 - - - - SW 4 6 2 3 1015.1 - -
01/03:00am 12.9 - - - - SW 2 4 1 2 1015.0 1015.0 -
01/02:30am 12.8 - - - - CALM 0 4 0 2 1015.3 - -
01/02:00am 13.0 - - - - SW 6 7 3 4 1015.9 1015.9 -
01/01:30am 13.4 - - - - SW 2 6 1 3 1016.1 - -
01/01:00am 14.0 - - - - WSW 2 4 1 2 1016.4 1016.4 -
01/12:30am 13.6 - - - - SW 2 4 1 2 1016.6 - -
01/12:00am 13.8 - - - - WSW 2 4 1 2 1016.9 1016.9 -
 
Date/Time
EST
Temp
°C
App
Temp
°C
Dew
Point
Rel
Hum
%
Delta-T
°C
Wind Press
QNH
hPa
Press
MSL
hPa
Rain
since 9 am
mm
Dir
 
Spd
km/h
Gust
km/h
Spd
kts
Gust
kts
31/11:30pm 14.1 - - - - SSW 2 4 1 2 1017.2 - -
31/11:00pm 14.0 - - - - W 6 13 3 7 1017.3 1017.3 -
31/10:30pm 13.4 - - - - SW 6 7 3 4 1017.4 - -
31/10:00pm 13.7 - - - - WSW 6 7 3 4 1017.5 1017.5 -
31/09:30pm 13.7 - - - - SW 6 7 3 4 1017.5 - -
31/09:00pm 13.8 - - - - WSW 6 7 3 4 1017.7 1017.7 -
31/08:30pm 14.1 - - - - SW 6 7 3 4 1017.7 - -
31/08:00pm 14.6 - - - - SW 4 6 2 3 1017.7 1017.7 -

Other Formats:

Comma delimited format used in spreadsheet applications
http://www.bom.gov.au/fwo/IDN60801/IDN60801.95745.axf

JavaScript Object Notation format (JSON) in row-major order
http://www.bom.gov.au/fwo/IDN60801/IDN60801.95745.json